sensor_id;sensor_type;location;lat;lon;timestamp;pressure;altitude;pressure_sealevel;temperature;humidity
55538;BME280;41383;51.418;7.286;2022-11-02T00:00:34;99895.06;;;13.11;65.54
55538;BME280;41383;51.418;7.286;2022-11-02T00:02:59;99880.59;;;13.00;65.65
55538;BME280;41383;51.418;7.286;2022-11-02T00:05:25;99881.97;;;12.98;65.79
55538;BME280;41383;51.418;7.286;2022-11-02T00:07:52;99866.69;;;12.91;66.05
55538;BME280;41383;51.418;7.286;2022-11-02T00:10:18;99873.22;;;12.95;66.21
55538;BME280;41383;51.418;7.286;2022-11-02T00:12:44;99865.28;;;12.94;66.03
55538;BME280;41383;51.418;7.286;2022-11-02T00:15:10;99873.78;;;12.92;66.40
55538;BME280;41383;51.418;7.286;2022-11-02T00:17:35;99870.75;;;12.99;66.08
55538;BME280;41383;51.418;7.286;2022-11-02T00:20:03;99856.28;;;12.83;66.18
55538;BME280;41383;51.418;7.286;2022-11-02T00:22:30;99865.81;;;12.96;66.36
55538;BME280;41383;51.418;7.286;2022-11-02T00:24:56;99860.91;;;12.88;66.57
55538;BME280;41383;51.418;7.286;2022-11-02T00:27:22;99848.84;;;13.04;66.12
55538;BME280;41383;51.418;7.286;2022-11-02T00:29:47;99856.28;;;12.93;66.23
55538;BME280;41383;51.418;7.286;2022-11-02T00:32:13;99850.81;;;12.88;66.42
55538;BME280;41383;51.418;7.286;2022-11-02T00:34:38;99850.25;;;12.91;66.35
55538;BME280;41383;51.418;7.286;2022-11-02T00:37:03;99853.53;;;12.93;66.95
55538;BME280;41383;51.418;7.286;2022-11-02T00:39:28;99859.50;;;13.06;67.93
55538;BME280;41383;51.418;7.286;2022-11-02T00:41:54;99860.34;;;13.01;68.66
55538;BME280;41383;51.418;7.286;2022-11-02T00:44:19;99854.88;;;12.96;69.38
55538;BME280;41383;51.418;7.286;2022-11-02T00:46:44;99867.25;;;12.67;71.16
55538;BME280;41383;51.418;7.286;2022-11-02T00:49:09;99870.47;;;13.01;70.95
55538;BME280;41383;51.418;7.286;2022-11-02T00:51:35;99863.94;;;12.91;71.12
55538;BME280;41383;51.418;7.286;2022-11-02T00:54:00;99859.81;;;12.94;71.00
55538;BME280;41383;51.418;7.286;2022-11-02T00:56:25;99862.31;;;12.85;71.66
55538;BME280;41383;51.418;7.286;2022-11-02T00:58:51;99866.09;;;12.94;71.13
55538;BME280;41383;51.418;7.286;2022-11-02T01:01:16;99845.59;;;12.92;71.07
55538;BME280;41383;51.418;7.286;2022-11-02T01:03:41;99855.44;;;12.88;71.23
55538;BME280;41383;51.418;7.286;2022-11-02T01:06:11;99853.03;;;12.81;71.29
55538;BME280;41383;51.418;7.286;2022-11-02T01:08:37;99848.63;;;12.80;70.85
55538;BME280;41383;51.418;7.286;2022-11-02T01:11:11;99857.09;;;12.83;71.25
55538;BME280;41383;51.418;7.286;2022-11-02T01:13:36;99855.75;;;12.81;70.74
55538;BME280;41383;51.418;7.286;2022-11-02T01:16:03;99865.03;;;12.80;70.67
55538;BME280;41383;51.418;7.286;2022-11-02T01:18:28;99858.22;;;12.82;70.71
55538;BME280;41383;51.418;7.286;2022-11-02T01:20:57;99862.59;;;12.78;70.49
55538;BME280;41383;51.418;7.286;2022-11-02T01:23:23;99857.13;;;12.78;70.96
55538;BME280;41383;51.418;7.286;2022-11-02T01:25:49;99851.94;;;12.71;70.66
55538;BME280;41383;51.418;7.286;2022-11-02T01:28:14;99855.75;;;12.81;70.47
55538;BME280;41383;51.418;7.286;2022-11-02T01:30:40;99854.38;;;12.89;69.70
55538;BME280;41383;51.418;7.286;2022-11-02T01:33:05;99863.38;;;12.94;69.48
55538;BME280;41383;51.418;7.286;2022-11-02T01:35:30;99849.66;;;13.05;69.35
55538;BME280;41383;51.418;7.286;2022-11-02T01:37:56;99848.56;;;13.01;69.66
55538;BME280;41383;51.418;7.286;2022-11-02T01:40:21;99863.66;;;12.93;69.70
55538;BME280;41383;51.418;7.286;2022-11-02T01:42:46;99859.03;;;12.83;69.86
55538;BME280;41383;51.418;7.286;2022-11-02T01:45:13;99856.00;;;12.90;69.27
55538;BME280;41383;51.418;7.286;2022-11-02T01:47:41;99851.06;;;12.92;69.06
55538;BME280;41383;51.418;7.286;2022-11-02T01:50:12;99862.56;;;12.89;69.38
55538;BME280;41383;51.418;7.286;2022-11-02T01:52:39;99858.22;;;12.82;69.55
55538;BME280;41383;51.418;7.286;2022-11-02T01:57:32;99858.75;;;12.84;69.23
55538;BME280;41383;51.418;7.286;2022-11-02T02:02:29;99864.19;;;12.90;69.20
55538;BME280;41383;51.418;7.286;2022-11-02T02:05:02;99862.81;;;12.92;69.17
55538;BME280;41383;51.418;7.286;2022-11-02T02:07:29;99848.31;;;12.97;68.88
55538;BME280;41383;51.418;7.286;2022-11-02T02:09:55;99865.53;;;13.03;68.60
55538;BME280;41383;51.418;7.286;2022-11-02T02:12:21;99856.75;;;13.06;68.96
55538;BME280;41383;51.418;7.286;2022-11-02T02:14:47;99861.69;;;13.04;68.75
55538;BME280;41383;51.418;7.286;2022-11-02T02:17:25;99855.38;;;13.08;68.18
55538;BME280;41383;51.418;7.286;2022-11-02T02:20:09;99864.19;;;12.90;69.20
55538;BME280;41383;51.418;7.286;2022-11-02T02:28:51;99850.69;;;13.19;67.97
55538;BME280;41383;51.418;7.286;2022-11-02T02:34:47;99852.09;;;13.06;68.29
55538;BME280;41383;51.418;7.286;2022-11-02T02:37:21;99858.69;;;13.00;68.23
55538;BME280;41383;51.418;7.286;2022-11-02T02:40:18;99863.31;;;13.10;68.28
55538;BME280;41383;51.418;7.286;2022-11-02T02:42:52;99846.38;;;13.03;68.27
55538;BME280;41383;51.418;7.286;2022-11-02T02:48:08;99857.06;;;12.99;68.78
55538;BME280;41383;51.418;7.286;2022-11-02T02:50:49;99845.88;;;12.90;68.85
55538;BME280;41383;51.418;7.286;2022-11-02T02:53:18;99860.59;;;13.00;68.55
55538;BME280;41383;51.418;7.286;2022-11-02T02:55:46;99858.94;;;13.04;68.57
55538;BME280;41383;51.418;7.286;2022-11-02T02:58:17;99856.75;;;13.06;68.52
55538;BME280;41383;51.418;7.286;2022-11-02T03:00:43;99858.69;;;13.05;68.35
55538;BME280;41383;51.418;7.286;2022-11-02T03:03:16;99871.25;;;13.12;68.34
55538;BME280;41383;51.418;7.286;2022-11-02T03:05:43;99856.50;;;13.02;68.54
55538;BME280;41383;51.418;7.286;2022-11-02T03:08:18;99856.25;;;12.99;68.88
55538;BME280;41383;51.418;7.286;2022-11-02T03:10:50;99847.50;;;12.96;68.53
55538;BME280;41383;51.418;7.286;2022-11-02T03:13:47;99854.38;;;12.89;68.95
55538;BME280;41383;51.418;7.286;2022-11-02T03:16:37;99840.13;;;12.97;68.69
55538;BME280;41383;51.418;7.286;2022-11-02T03:19:20;99850.81;;;12.93;68.39
55538;BME280;41383;51.418;7.286;2022-11-02T03:21:51;99862.81;;;12.92;68.70
55538;BME280;41383;51.418;7.286;2022-11-02T03:29:46;99867.75;;;12.90;68.83
55538;BME280;41383;51.418;7.286;2022-11-02T03:32:22;99873.50;;;12.89;69.12
55538;BME280;41383;51.418;7.286;2022-11-02T03:34:54;99872.97;;;12.81;69.36
55538;BME280;41383;51.418;7.286;2022-11-02T03:37:33;99877.06;;;12.94;68.40
55538;BME280;41383;51.418;7.286;2022-11-02T03:40:08;99886.91;;;12.90;68.29
55538;BME280;41383;51.418;7.286;2022-11-02T03:42:36;99884.75;;;12.82;68.95
55538;BME280;41383;51.418;7.286;2022-11-02T03:45:13;99896.78;;;12.86;68.63
55538;BME280;41383;51.418;7.286;2022-11-02T03:47:43;99897.06;;;12.74;68.75
55538;BME280;41383;51.418;7.286;2022-11-02T03:50:11;99896.22;;;12.84;68.62
55538;BME280;41383;51.418;7.286;2022-11-02T03:52:40;99895.66;;;12.92;68.16
55538;BME280;41383;51.418;7.286;2022-11-02T03:57:35;99903.34;;;12.85;68.18
55538;BME280;41383;51.418;7.286;2022-11-02T04:05:13;99913.75;;;12.78;68.64
55538;BME280;41383;51.418;7.286;2022-11-02T04:07:40;99914.84;;;12.77;68.60
55538;BME280;41383;51.418;7.286;2022-11-02T04:10:25;99918.69;;;12.81;68.91
55538;BME280;41383;51.418;7.286;2022-11-02T04:12:50;99927.16;;;12.84;68.43
55538;BME280;41383;51.418;7.286;2022-11-02T04:15:34;99925.22;;;12.80;68.58
55538;BME280;41383;51.418;7.286;2022-11-02T04:17:59;99928.50;;;12.92;68.43
55538;BME280;41383;51.418;7.286;2022-11-02T04:21:00;99946.84;;;12.81;68.66
55538;BME280;41383;51.418;7.286;2022-11-02T04:23:25;99941.63;;;12.90;68.60
55538;BME280;41383;51.418;7.286;2022-11-02T04:26:09;99934.25;;;12.80;69.00
55538;BME280;41383;51.418;7.286;2022-11-02T04:28:34;99938.09;;;12.74;69.04
55538;BME280;41383;51.418;7.286;2022-11-02T04:30:59;99944.94;;;12.66;69.28
55538;BME280;41383;51.418;7.286;2022-11-02T04:33:26;99943.56;;;12.64;68.58
55538;BME280;41383;51.418;7.286;2022-11-02T04:36:05;99948.75;;;12.65;68.56
55538;BME280;41383;51.418;7.286;2022-11-02T04:38:31;99958.38;;;12.63;68.55
55538;BME280;41383;51.418;7.286;2022-11-02T04:41:06;99950.13;;;12.68;68.07
55538;BME280;41383;51.418;7.286;2022-11-02T04:43:51;99953.16;;;12.51;68.31
55538;BME280;41383;51.418;7.286;2022-11-02T04:46:16;99953.13;;;12.61;68.00
55538;BME280;41383;51.418;7.286;2022-11-02T04:48:42;99956.44;;;12.79;67.63
55538;BME280;41383;51.418;7.286;2022-11-02T04:51:07;99964.63;;;12.63;67.92
55538;BME280;41383;51.418;7.286;2022-11-02T04:53:32;99961.34;;;12.61;67.92
55538;BME280;41383;51.418;7.286;2022-11-02T04:55:59;99970.66;;;12.65;67.71
55538;BME280;41383;51.418;7.286;2022-11-02T04:58:24;99954.78;;;12.62;67.72
55538;BME280;41383;51.418;7.286;2022-11-02T05:00:50;99969.84;;;12.70;67.71
55538;BME280;41383;51.418;7.286;2022-11-02T05:03:15;99971.75;;;12.69;67.94
55538;BME280;41383;51.418;7.286;2022-11-02T05:05:40;99969.03;;;12.64;67.48
55538;BME280;41383;51.418;7.286;2022-11-02T05:08:05;99981.59;;;12.70;67.70
55538;BME280;41383;51.418;7.286;2022-11-02T05:10:31;99985.97;;;12.66;67.63
55538;BME280;41383;51.418;7.286;2022-11-02T05:12:57;99984.63;;;12.58;68.00
55538;BME280;41383;51.418;7.286;2022-11-02T05:15:23;99985.44;;;12.59;67.79
55538;BME280;41383;51.418;7.286;2022-11-02T05:17:48;99988.16;;;12.64;67.62
55538;BME280;41383;51.418;7.286;2022-11-02T05:20:13;99988.16;;;12.64;67.72
55538;BME280;41383;51.418;7.286;2022-11-02T05:22:41;99987.63;;;12.57;67.97
55538;BME280;41383;51.418;7.286;2022-11-02T05:25:08;99987.63;;;12.62;67.70
55538;BME280;41383;51.418;7.286;2022-11-02T05:27:33;99984.63;;;12.58;68.03
55538;BME280;41383;51.418;7.286;2022-11-02T05:29:59;99980.25;;;12.63;67.81
55538;BME280;41383;51.418;7.286;2022-11-02T05:32:25;99994.72;;;12.68;67.42
55538;BME280;41383;51.418;7.286;2022-11-02T05:34:51;100000.72;;;12.65;67.60
55538;BME280;41383;51.418;7.286;2022-11-02T05:37:16;99999.38;;;12.52;68.09
55538;BME280;41383;51.418;7.286;2022-11-02T05:39:41;100005.13;;;12.51;68.38
55538;BME280;41383;51.418;7.286;2022-11-02T05:42:07;100011.13;;;12.47;68.28
55538;BME280;41383;51.418;7.286;2022-11-02T05:44:32;100006.22;;;12.55;68.18
55538;BME280;41383;51.418;7.286;2022-11-02T05:46:57;100012.78;;;12.59;68.29
55538;BME280;41383;51.418;7.286;2022-11-02T05:49:22;100008.09;;;12.49;68.37
55538;BME280;41383;51.418;7.286;2022-11-02T05:51:48;100011.13;;;12.47;68.58
55538;BME280;41383;51.418;7.286;2022-11-02T05:54:13;100017.69;;;12.52;68.32
55538;BME280;41383;51.418;7.286;2022-11-02T05:56:38;100024.00;;;12.52;68.11
55538;BME280;41383;51.418;7.286;2022-11-02T05:59:04;100028.09;;;12.60;68.05
55538;BME280;41383;51.418;7.286;2022-11-02T06:01:29;100025.91;;;12.57;67.41
55538;BME280;41383;51.418;7.286;2022-11-02T06:03:55;100028.88;;;12.45;67.99
55538;BME280;41383;51.418;7.286;2022-11-02T06:06:20;100027.81;;;12.46;67.48
55538;BME280;41383;51.418;7.286;2022-11-02T06:08:45;100029.69;;;12.35;68.30
55538;BME280;41383;51.418;7.286;2022-11-02T06:11:12;100032.16;;;12.36;68.05
55538;BME280;41383;51.418;7.286;2022-11-02T06:13:38;100036.28;;;12.44;68.20
55538;BME280;41383;51.418;7.286;2022-11-02T06:16:05;100050.22;;;12.53;67.13
55538;BME280;41383;51.418;7.286;2022-11-02T06:18:32;100058.16;;;12.44;67.42
55538;BME280;41383;51.418;7.286;2022-11-02T06:20:57;100057.56;;;12.37;67.87
55538;BME280;41383;51.418;7.286;2022-11-02T06:23:24;100054.31;;;12.45;67.40
55538;BME280;41383;51.418;7.286;2022-11-02T06:25:53;100055.97;;;12.52;67.22
55538;BME280;41383;51.418;7.286;2022-11-02T06:28:19;100062.53;;;12.45;67.51
55538;BME280;41383;51.418;7.286;2022-11-02T06:30:45;100056.25;;;12.55;67.20
55538;BME280;41383;51.418;7.286;2022-11-02T06:33:11;100056.25;;;12.50;67.07
55538;BME280;41383;51.418;7.286;2022-11-02T06:35:36;100063.03;;;12.37;67.64
55538;BME280;41383;51.418;7.286;2022-11-02T06:38:01;100062.25;;;12.42;67.66
55538;BME280;41383;51.418;7.286;2022-11-02T06:40:27;100066.31;;;12.29;67.68
55538;BME280;41383;51.418;7.286;2022-11-02T06:42:56;100081.06;;;12.28;68.16
55538;BME280;41383;51.418;7.286;2022-11-02T06:45:22;100096.91;;;12.20;68.25
55538;BME280;41383;51.418;7.286;2022-11-02T06:47:48;100086.25;;;12.29;67.79
55538;BME280;41383;51.418;7.286;2022-11-02T06:50:13;100097.50;;;12.43;67.55
55538;BME280;41383;51.418;7.286;2022-11-02T06:52:45;100095.63;;;12.59;66.98
55538;BME280;41383;51.418;7.286;2022-11-02T06:55:13;100103.56;;;12.51;67.20
55538;BME280;41383;51.418;7.286;2022-11-02T06:57:40;100107.38;;;12.49;67.15
55538;BME280;41383;51.418;7.286;2022-11-02T07:00:08;100114.19;;;12.36;67.76
55538;BME280;41383;51.418;7.286;2022-11-02T07:02:35;100110.88;;;12.29;67.52
55538;BME280;41383;51.418;7.286;2022-11-02T07:05:00;100123.19;;;12.32;67.80
55538;BME280;41383;51.418;7.286;2022-11-02T07:07:26;100130.28;;;12.33;67.69
55538;BME280;41383;51.418;7.286;2022-11-02T07:09:51;100136.31;;;12.35;67.68
55538;BME280;41383;51.418;7.286;2022-11-02T07:12:17;100139.38;;;12.49;67.59
55538;BME280;41383;51.418;7.286;2022-11-02T07:14:42;100153.63;;;12.61;66.86
55538;BME280;41383;51.418;7.286;2022-11-02T07:17:07;100155.53;;;12.51;66.70
55538;BME280;41383;51.418;7.286;2022-11-02T07:19:33;100166.16;;;12.42;66.74
55538;BME280;41383;51.418;7.286;2022-11-02T07:21:58;100176.19;;;12.25;67.52
55538;BME280;41383;51.418;7.286;2022-11-02T07:24:23;100195.44;;;12.46;67.25
55538;BME280;41383;51.418;7.286;2022-11-02T07:26:49;100174.91;;;12.49;66.84
55538;BME280;41383;51.418;7.286;2022-11-02T07:29:17;100182.88;;;12.56;66.87
55538;BME280;41383;51.418;7.286;2022-11-02T07:31:43;100192.19;;;12.55;67.24
55538;BME280;41383;51.418;7.286;2022-11-02T07:34:09;100196.59;;;12.66;66.67
55538;BME280;41383;51.418;7.286;2022-11-02T07:36:34;100206.66;;;12.55;66.31
55538;BME280;41383;51.418;7.286;2022-11-02T07:39:00;100202.63;;;12.68;65.94
55538;BME280;41383;51.418;7.286;2022-11-02T07:41:25;100215.22;;;12.80;65.89
55538;BME280;41383;51.418;7.286;2022-11-02T07:43:50;100221.28;;;12.87;65.62
55538;BME280;41383;51.418;7.286;2022-11-02T07:46:16;100220.72;;;12.80;65.81
55538;BME280;41383;51.418;7.286;2022-11-02T07:48:41;100227.50;;;12.67;65.67
55538;BME280;41383;51.418;7.286;2022-11-02T07:51:06;100236.03;;;12.81;65.29
55538;BME280;41383;51.418;7.286;2022-11-02T07:53:32;100227.84;;;12.86;65.35
55538;BME280;41383;51.418;7.286;2022-11-02T07:56:02;100240.72;;;12.96;65.42
55538;BME280;41383;51.418;7.286;2022-11-02T07:58:28;100239.25;;;12.67;65.80
55538;BME280;41383;51.418;7.286;2022-11-02T08:00:56;100257.09;;;12.75;65.53
55538;BME280;41383;51.418;7.286;2022-11-02T08:03:21;100247.78;;;12.76;65.97
55538;BME280;41383;51.418;7.286;2022-11-02T08:05:47;100256.00;;;12.81;65.94
55538;BME280;41383;51.418;7.286;2022-11-02T08:08:14;100253.28;;;12.87;64.96
55538;BME280;41383;51.418;7.286;2022-11-02T08:10:40;100254.97;;;12.98;64.80
55538;BME280;41383;51.418;7.286;2022-11-02T08:13:11;100266.47;;;12.95;65.32
55538;BME280;41383;51.418;7.286;2022-11-02T08:15:37;100266.69;;;12.83;65.37
55538;BME280;41383;51.418;7.286;2022-11-02T08:18:08;100263.97;;;12.83;65.69
55538;BME280;41383;51.418;7.286;2022-11-02T08:20:36;100270.59;;;12.98;64.79
55538;BME280;41383;51.418;7.286;2022-11-02T08:23:01;100263.44;;;12.91;64.85
55538;BME280;41383;51.418;7.286;2022-11-02T08:25:26;100277.09;;;12.81;65.38
55538;BME280;41383;51.418;7.286;2022-11-02T08:27:56;100273.19;;;12.71;65.55
55538;BME280;41383;51.418;7.286;2022-11-02T08:30:25;100278.72;;;12.77;65.68
55538;BME280;41383;51.418;7.286;2022-11-02T08:32:51;100280.66;;;12.87;65.96
55538;BME280;41383;51.418;7.286;2022-11-02T08:35:16;100274.91;;;12.83;65.94
55538;BME280;41383;51.418;7.286;2022-11-02T08:37:41;100287.53;;;12.89;65.06
55538;BME280;41383;51.418;7.286;2022-11-02T08:40:07;100289.09;;;12.80;65.83
55538;BME280;41383;51.418;7.286;2022-11-02T08:42:32;100279.31;;;13.00;64.70
55538;BME280;41383;51.418;7.286;2022-11-02T08:44:58;100284.78;;;12.89;65.14
55538;BME280;41383;51.418;7.286;2022-11-02T08:47:23;100293.56;;;12.96;64.79
55538;BME280;41383;51.418;7.286;2022-11-02T08:49:48;100282.06;;;13.00;64.26
55538;BME280;41383;51.418;7.286;2022-11-02T08:52:16;100301.56;;;13.24;63.97
55538;BME280;41383;51.418;7.286;2022-11-02T08:54:41;100305.47;;;13.44;63.91
55538;BME280;41383;51.418;7.286;2022-11-02T08:57:06;100309.25;;;13.33;63.74
55538;BME280;41383;51.418;7.286;2022-11-02T08:59:32;100304.34;;;13.29;64.10
55538;BME280;41383;51.418;7.286;2022-11-02T09:01:57;100310.38;;;13.37;63.57
55538;BME280;41383;51.418;7.286;2022-11-02T09:04:22;100309.53;;;13.31;63.39
55538;BME280;41383;51.418;7.286;2022-11-02T09:06:47;100312.31;;;13.41;63.24
55538;BME280;41383;51.418;7.286;2022-11-02T09:09:13;100337.81;;;13.52;63.16
55538;BME280;41383;51.418;7.286;2022-11-02T09:11:38;100311.72;;;13.24;62.10
55538;BME280;41383;51.418;7.286;2022-11-02T09:14:03;100317.72;;;13.21;62.33
55538;BME280;41383;51.418;7.286;2022-11-02T09:16:28;100328.38;;;13.17;61.88
55538;BME280;41383;51.418;7.286;2022-11-02T09:18:54;100333.91;;;13.33;61.11
55538;BME280;41383;51.418;7.286;2022-11-02T09:21:19;100334.75;;;13.38;61.54
55538;BME280;41383;51.418;7.286;2022-11-02T09:23:44;100335.25;;;13.25;62.20
55538;BME280;41383;51.418;7.286;2022-11-02T09:26:12;100339.97;;;13.45;61.40
55538;BME280;41383;51.418;7.286;2022-11-02T09:28:38;100350.66;;;13.41;60.61
55538;BME280;41383;51.418;7.286;2022-11-02T09:31:03;100333.63;;;13.29;60.94
55538;BME280;41383;51.418;7.286;2022-11-02T09:33:28;100344.63;;;13.39;60.79
55538;BME280;41383;51.418;7.286;2022-11-02T09:35:54;100336.38;;;13.29;61.30
55538;BME280;41383;51.418;7.286;2022-11-02T09:38:19;100339.13;;;13.45;61.74
55538;BME280;41383;51.418;7.286;2022-11-02T09:40:53;100352.03;;;13.49;61.88
55538;BME280;41383;51.418;7.286;2022-11-02T09:46:36;100350.19;;;13.60;61.48
55538;BME280;41383;51.418;7.286;2022-11-02T09:49:04;100352.28;;;13.37;60.82
55538;BME280;41383;51.418;7.286;2022-11-02T09:54:18;100341.69;;;13.67;60.73
55538;BME280;41383;51.418;7.286;2022-11-02T09:56:46;100354.50;;;13.51;60.43
55538;BME280;41383;51.418;7.286;2022-11-02T09:59:21;100346.34;;;13.56;59.82
55538;BME280;41383;51.418;7.286;2022-11-02T10:01:55;100352.00;;;13.34;60.49
55538;BME280;41383;51.418;7.286;2022-11-02T10:04:48;100353.31;;;13.21;62.08
55538;BME280;41383;51.418;7.286;2022-11-02T10:08:00;100360.88;;;13.62;60.28
55538;BME280;41383;51.418;7.286;2022-11-02T10:10:36;100352.41;;;13.84;59.88
55538;BME280;41383;51.418;7.286;2022-11-02T10:16:07;100343.66;;;14.03;59.75
55538;BME280;41383;51.418;7.286;2022-11-02T10:18:35;100355.72;;;14.07;59.66
55538;BME280;41383;51.418;7.286;2022-11-02T10:21:06;100360.63;;;14.42;59.37
55538;BME280;41383;51.418;7.286;2022-11-02T10:23:44;100360.06;;;14.45;58.50
55538;BME280;41383;51.418;7.286;2022-11-02T10:26:21;100368.81;;;14.68;58.83
55538;BME280;41383;51.418;7.286;2022-11-02T10:28:48;100372.09;;;14.65;58.46
55538;BME280;41383;51.418;7.286;2022-11-02T10:31:22;100376.47;;;14.71;57.98
55538;BME280;41383;51.418;7.286;2022-11-02T10:33:48;100379.19;;;14.81;57.63
55538;BME280;41383;51.418;7.286;2022-11-02T10:36:46;100373.19;;;14.58;57.10
55538;BME280;41383;51.418;7.286;2022-11-02T10:39:28;100363.56;;;14.82;56.96
55538;BME280;41383;51.418;7.286;2022-11-02T10:42:18;100365.50;;;14.76;56.86
55538;BME280;41383;51.418;7.286;2022-11-02T10:47:55;100363.88;;;14.65;56.29
55538;BME280;41383;51.418;7.286;2022-11-02T10:50:33;100366.59;;;14.75;56.25
55538;BME280;41383;51.418;7.286;2022-11-02T10:53:01;100369.91;;;14.72;54.74
55538;BME280;41383;51.418;7.286;2022-11-02T10:57:59;100375.38;;;14.82;54.61
55538;BME280;41383;51.418;7.286;2022-11-02T11:00:33;100376.78;;;14.59;54.96
55538;BME280;41383;51.418;7.286;2022-11-02T11:05:33;100369.31;;;14.91;53.82
55538;BME280;41383;51.418;7.286;2022-11-02T11:08:00;100376.41;;;15.08;53.93
55538;BME280;41383;51.418;7.286;2022-11-02T11:10:26;100367.13;;;14.98;52.75
55538;BME280;41383;51.418;7.286;2022-11-02T11:12:53;100375.09;;;14.94;52.98
55538;BME280;41383;51.418;7.286;2022-11-02T11:15:29;100384.16;;;14.69;53.36
55538;BME280;41383;51.418;7.286;2022-11-02T11:17:56;100389.63;;;14.79;53.00
55538;BME280;41383;51.418;7.286;2022-11-02T11:20:35;100381.41;;;14.79;52.11
55538;BME280;41383;51.418;7.286;2022-11-02T11:23:17;100390.47;;;14.75;52.03
55538;BME280;41383;51.418;7.286;2022-11-02T11:26:02;100390.19;;;14.81;52.16
55538;BME280;41383;51.418;7.286;2022-11-02T11:31:16;100391.75;;;15.14;51.81
55538;BME280;41383;51.418;7.286;2022-11-02T11:33:44;100390.66;;;15.15;51.67
55538;BME280;41383;51.418;7.286;2022-11-02T11:36:20;100394.56;;;14.98;51.65
55538;BME280;41383;51.418;7.286;2022-11-02T11:38:47;100395.09;;;15.00;51.02
55538;BME280;41383;51.418;7.286;2022-11-02T11:41:14;100391.22;;;15.12;51.46
55538;BME280;41383;51.418;7.286;2022-11-02T11:43:40;100391.44;;;15.31;51.80
55538;BME280;41383;51.418;7.286;2022-11-02T11:46:07;100387.31;;;15.28;51.66
55538;BME280;41383;51.418;7.286;2022-11-02T11:48:38;100392.84;;;15.23;51.44
55538;BME280;41383;51.418;7.286;2022-11-02T11:51:27;100394.97;;;15.37;51.14
55538;BME280;41383;51.418;7.286;2022-11-02T11:54:17;100397.19;;;15.29;50.49
55538;BME280;41383;51.418;7.286;2022-11-02T11:56:43;100393.25;;;15.46;50.49
55538;BME280;41383;51.418;7.286;2022-11-02T12:00:01;100388.69;;;15.26;49.84
55538;BME280;41383;51.418;7.286;2022-11-02T12:04:44;100382.41;;;15.71;49.20
55538;BME280;41383;51.418;7.286;2022-11-02T12:07:23;100382.59;;;15.85;48.75
55538;BME280;41383;51.418;7.286;2022-11-02T12:10:45;100383.88;;;15.58;49.04
55538;BME280;41383;51.418;7.286;2022-11-02T12:15:55;100385.50;;;15.59;48.10
55538;BME280;41383;51.418;7.286;2022-11-02T12:21:20;100381.84;;;15.18;48.77
55538;BME280;41383;51.418;7.286;2022-11-02T12:24:20;100369.47;;;15.31;49.24
55538;BME280;41383;51.418;7.286;2022-11-02T12:29:45;100362.00;;;15.32;49.04
55538;BME280;41383;51.418;7.286;2022-11-02T12:41:00;100360.94;;;15.78;47.88
55538;BME280;41383;51.418;7.286;2022-11-02T12:43:40;100373.00;;;15.82;48.37
55538;BME280;41383;51.418;7.286;2022-11-02T12:46:15;100358.63;;;15.56;47.91
55538;BME280;41383;51.418;7.286;2022-11-02T12:52:16;100368.59;;;15.36;49.88
55538;BME280;41383;51.418;7.286;2022-11-02T12:54:47;100366.31;;;15.54;48.57
55538;BME280;41383;51.418;7.286;2022-11-02T12:57:17;100371.28;;;15.46;49.37
55538;BME280;41383;51.418;7.286;2022-11-02T12:59:44;100362.16;;;15.61;49.64
55538;BME280;41383;51.418;7.286;2022-11-02T13:02:18;100367.28;;;15.73;49.40
55538;BME280;41383;51.418;7.286;2022-11-02T13:05:11;100370.88;;;15.74;49.47
55538;BME280;41383;51.418;7.286;2022-11-02T13:07:54;100353.06;;;16.01;49.25
55538;BME280;41383;51.418;7.286;2022-11-02T13:10:28;100360.13;;;15.78;49.35
55538;BME280;41383;51.418;7.286;2022-11-02T13:12:58;100367.75;;;15.86;50.02
55538;BME280;41383;51.418;7.286;2022-11-02T13:15:25;100363.25;;;16.01;50.22
55538;BME280;41383;51.418;7.286;2022-11-02T13:17:55;100360.97;;;16.13;49.96
55538;BME280;41383;51.418;7.286;2022-11-02T13:20:25;100367.06;;;16.10;50.09
55538;BME280;41383;51.418;7.286;2022-11-02T13:22:59;100367.06;;;16.10;50.37
55538;BME280;41383;51.418;7.286;2022-11-02T13:25:35;100372.78;;;16.19;49.49
55538;BME280;41383;51.418;7.286;2022-11-02T13:28:13;100364.91;;;16.02;48.90
55538;BME280;41383;51.418;7.286;2022-11-02T13:30:42;100360.69;;;16.15;48.48
55538;BME280;41383;51.418;7.286;2022-11-02T13:33:22;100361.66;;;15.94;49.06
55538;BME280;41383;51.418;7.286;2022-11-02T13:35:50;100355.19;;;15.74;49.56
55538;BME280;41383;51.418;7.286;2022-11-02T13:38:29;100349.59;;;15.85;49.73
55538;BME280;41383;51.418;7.286;2022-11-02T13:41:17;100347.97;;;15.84;49.56
55538;BME280;41383;51.418;7.286;2022-11-02T13:44:13;100350.59;;;15.99;49.64
55538;BME280;41383;51.418;7.286;2022-11-02T13:49:30;100338.69;;;15.74;49.58
55538;BME280;41383;51.418;7.286;2022-11-02T13:52:03;100357.00;;;15.90;49.25
55538;BME280;41383;51.418;7.286;2022-11-02T13:57:30;100357.34;;;15.37;49.71
55538;BME280;41383;51.418;7.286;2022-11-02T13:59:58;100357.06;;;15.39;50.00
55538;BME280;41383;51.418;7.286;2022-11-02T14:02:27;100353.22;;;15.35;50.98
55538;BME280;41383;51.418;7.286;2022-11-02T14:04:54;100350.91;;;15.58;50.98
55538;BME280;41383;51.418;7.286;2022-11-02T14:07:24;100353.13;;;15.56;51.67
55538;BME280;41383;51.418;7.286;2022-11-02T14:09:56;100351.94;;;15.67;51.61
55538;BME280;41383;51.418;7.286;2022-11-02T14:25:56;100343.84;;;15.41;53.43
55538;BME280;41383;51.418;7.286;2022-11-02T14:28:30;100354.31;;;15.39;53.23
55538;BME280;41383;51.418;7.286;2022-11-02T14:33:52;100341.44;;;15.29;53.09
55538;BME280;41383;51.418;7.286;2022-11-02T14:36:46;100348.66;;;15.14;53.45
55538;BME280;41383;51.418;7.286;2022-11-02T14:44:26;100335.00;;;14.99;54.17
55538;BME280;41383;51.418;7.286;2022-11-02T14:47:09;100333.63;;;14.91;54.32
55538;BME280;41383;51.418;7.286;2022-11-02T14:49:46;100322.94;;;14.94;54.33